Time;durP1;ratioP1;P1;durP2;ratioP2;P2;SDS_P1;SDS_P2;PMS_P1;PMS_P2;Temp;Humidity;BMP_temperature;BMP_pressure;BME280_temperature;BME280_humidity;BME280_pressure;Samples;Min_cycle;Max_cycle;Signal;HPM_P1;HPM_P2
2021/05/01 00:00:38;;;;;;;37.70;26.23;;;;;;;5.05;83.36;101375.94;5101997;28;20532;-62
2021/05/01 00:03:04;;;;;;;37.33;25.92;;;;;;;4.99;83.41;101380.06;5104533;28;20098;-62
2021/05/01 00:05:29;;;;;;;39.35;27.38;;;;;;;4.93;84.58;101382.47;5101353;28;20364;-63
2021/05/01 00:07:55;;;;;;;40.05;28.35;;;;;;;4.85;84.75;101380.44;5107139;28;20513;-62
2021/05/01 00:10:21;;;;;;;39.35;28.08;;;;;;;4.77;85.65;101379.25;5106421;28;20020;-62
2021/05/01 00:12:46;;;;;;;39.78;26.98;;;;;;;4.65;84.93;101381.44;5106871;28;20016;-62
2021/05/01 00:15:12;;;;;;;38.60;26.88;;;;;;;4.55;86.23;101377.59;5106342;28;20169;-62
2021/05/01 00:17:38;;;;;;;38.83;26.02;;;;;;;4.49;86.77;101374.75;5105398;28;20020;-62
2021/05/01 00:20:04;;;;;;;36.95;25.55;;;;;;;4.34;86.49;101381.19;5108350;28;20050;-62
2021/05/01 00:22:29;;;;;;;40.70;27.55;;;;;;;4.00;89.65;101385.13;5101011;28;20028;-62
2021/05/01 00:24:55;;;;;;;37.45;26.10;;;;;;;3.89;90.46;101385.50;5108127;28;20029;-60
2021/05/01 00:27:20;;;;;;;34.28;23.33;;;;;;;3.77;88.62;101386.81;5106243;28;20366;-60
2021/05/01 00:29:45;;;;;;;40.25;28.33;;;;;;;3.76;92.12;101382.38;5106365;28;20036;-60
2021/05/01 00:32:11;;;;;;;38.60;28.02;;;;;;;3.79;91.92;101386.88;5107307;28;20112;-60
2021/05/01 00:34:36;;;;;;;39.08;27.83;;;;;;;3.79;91.66;101382.50;5105160;28;20027;-60
2021/05/01 00:37:02;;;;;;;41.45;29.15;;;;;;;3.74;92.67;101381.44;5108211;28;20027;-60
2021/05/01 00:39:28;;;;;;;41.13;28.80;;;;;;;3.81;92.02;101374.72;5104818;28;20401;-60
2021/05/01 00:41:53;;;;;;;41.42;28.25;;;;;;;3.77;91.39;101364.97;5107329;28;20067;-60
2021/05/01 00:44:19;;;;;;;40.90;29.38;;;;;;;3.78;91.39;101367.63;5106130;28;20020;-60
2021/05/01 00:46:44;;;;;;;39.97;28.23;;;;;;;3.81;90.86;101372.09;5105982;28;20099;-60
2021/05/01 00:49:10;;;;;;;39.83;27.63;;;;;;;3.76;89.46;101369.31;5107302;28;20062;-60
2021/05/01 00:51:35;;;;;;;40.40;27.55;;;;;;;3.76;88.94;101363.22;5104494;28;20111;-60
2021/05/01 00:54:01;;;;;;;42.38;30.23;;;;;;;3.74;90.51;101373.59;5107955;28;20026;-60
2021/05/01 00:56:26;;;;;;;42.63;31.27;;;;;;;3.69;91.95;101366.41;5104949;28;20035;-60
2021/05/01 00:58:53;;;;;;;41.80;29.42;;;;;;;3.64;92.50;101371.41;5107041;28;20099;-60
2021/05/01 01:01:18;;;;;;;40.42;29.58;;;;;;;3.53;91.27;101367.50;5105665;28;20107;-60
2021/05/01 01:03:46;;;;;;;41.72;29.52;;;;;;;3.36;91.31;101372.88;5105712;28;20107;-60
2021/05/01 01:06:13;;;;;;;41.05;30.00;;;;;;;3.31;93.54;101363.97;5106499;28;20068;-60
2021/05/01 01:08:39;;;;;;;44.88;31.30;;;;;;;3.28;95.79;101369.06;5104656;28;20073;-60
2021/05/01 01:11:05;;;;;;;44.13;32.03;;;;;;;3.14;97.20;101358.91;5107950;28;20019;-60
2021/05/01 01:13:31;;;;;;;48.60;34.15;;;;;;;3.07;99.20;101362.13;5104057;28;20020;-60
2021/05/01 01:15:56;;;;;;;48.45;34.60;;;;;;;3.03;100.00;101361.88;5107268;28;20481;-59
2021/05/01 01:18:22;;;;;;;48.13;34.78;;;;;;;2.91;100.00;101359.63;5103971;27;20122;-61
2021/05/01 01:20:48;;;;;;;48.78;35.40;;;;;;;2.77;100.00;101354.72;5104192;28;20158;-60
2021/05/01 01:23:13;;;;;;;51.88;37.72;;;;;;;2.70;100.00;101349.16;5106239;28;20039;-60
2021/05/01 01:25:39;;;;;;;53.38;39.33;;;;;;;2.63;100.00;101349.72;5104750;28;20161;-60
2021/05/01 01:28:04;;;;;;;56.30;41.75;;;;;;;2.55;100.00;101357.16;5107222;28;20035;-60
2021/05/01 01:30:31;;;;;;;57.25;43.30;;;;;;;2.54;100.00;101355.41;5099991;28;20036;-60
2021/05/01 01:33:04;;;;;;;58.95;42.85;;;;;;;2.57;100.00;101355.53;5106673;28;20020;-60
2021/05/01 01:35:29;;;;;;;61.85;44.83;;;;;;;2.55;100.00;101350.25;5103416;28;20031;-60
2021/05/01 01:37:55;;;;;;;57.25;41.17;;;;;;;2.57;100.00;101352.94;5106407;28;20027;-60
2021/05/01 01:40:23;;;;;;;53.75;39.22;;;;;;;2.50;100.00;101364.78;5105078;28;20094;-61
2021/05/01 01:42:49;;;;;;;56.80;40.20;;;;;;;2.49;100.00;101354.28;5105328;28;20024;-60
2021/05/01 01:45:17;;;;;;;50.58;36.90;;;;;;;2.30;100.00;101360.38;5105666;28;20051;-60
2021/05/01 01:47:42;;;;;;;56.83;40.70;;;;;;;2.21;100.00;101353.03;5104642;28;20074;-60
2021/05/01 01:50:11;;;;;;;53.25;40.53;;;;;;;2.14;100.00;101353.56;5106324;28;20023;-60
2021/05/01 01:52:38;;;;;;;56.65;41.97;;;;;;;2.05;100.00;101352.34;5103471;28;20107;-60
2021/05/01 01:55:08;;;;;;;63.15;45.85;;;;;;;2.03;100.00;101356.56;5107151;28;20027;-60
2021/05/01 01:57:34;;;;;;;63.47;47.42;;;;;;;2.03;100.00;101350.47;5099559;28;20074;-60
2021/05/01 01:59:59;;;;;;;69.85;48.80;;;;;;;2.03;100.00;101351.34;5106787;28;20478;-60
2021/05/01 02:02:25;;;;;;;65.30;48.40;;;;;;;2.08;100.00;101346.34;5103972;28;20528;-60
2021/05/01 02:04:50;;;;;;;62.80;48.20;;;;;;;2.23;100.00;101343.56;5105284;28;20089;-61
2021/05/01 02:07:16;;;;;;;62.05;46.65;;;;;;;2.26;100.00;101344.59;5104720;27;20457;-59
2021/05/01 02:09:41;;;;;;;59.00;45.22;;;;;;;2.28;100.00;101347.28;5104029;28;20471;-60
2021/05/01 02:12:07;;;;;;;56.25;42.45;;;;;;;2.20;100.00;101349.53;5106412;28;20028;-60
2021/05/01 02:14:32;;;;;;;59.33;45.63;;;;;;;2.13;100.00;101343.97;5101643;28;20035;-60
2021/05/01 02:16:57;;;;;;;67.55;48.85;;;;;;;2.14;100.00;101345.75;5105814;28;20030;-60
2021/05/01 02:19:23;;;;;;;71.32;52.40;;;;;;;2.05;100.00;101344.50;5103555;28;20051;-60
2021/05/01 02:21:48;;;;;;;71.82;52.30;;;;;;;2.07;100.00;101349.78;5104820;28;20109;-60
2021/05/01 02:24:14;;;;;;;76.70;54.38;;;;;;;1.97;100.00;101351.06;5105273;28;20477;-60
2021/05/01 02:26:39;;;;;;;86.45;58.75;;;;;;;1.95;100.00;101350.06;5103397;28;20426;-60
2021/05/01 02:29:05;;;;;;;80.00;56.90;;;;;;;1.87;100.00;101343.63;5106094;28;20051;-60
2021/05/01 02:31:30;;;;;;;83.45;57.38;;;;;;;1.78;100.00;101353.59;5102425;28;20067;-60
2021/05/01 02:33:55;;;;;;;89.30;60.97;;;;;;;1.77;100.00;101347.50;5105413;28;20054;-60
2021/05/01 02:36:21;;;;;;;88.63;61.55;;;;;;;1.71;100.00;101347.22;5103823;28;20032;-62
2021/05/01 02:38:46;;;;;;;89.32;60.00;;;;;;;1.65;100.00;101347.81;5103693;28;20043;-62
2021/05/01 02:41:11;;;;;;;93.65;64.63;;;;;;;1.65;100.00;101352.13;5105164;28;20026;-61
2021/05/01 02:43:37;;;;;;;93.75;64.18;;;;;;;1.60;100.00;101346.66;5102600;28;20390;-62
2021/05/01 02:46:02;;;;;;;90.80;61.53;;;;;;;1.64;100.00;101346.00;5105782;28;20489;-61
2021/05/01 02:48:30;;;;;;;93.35;64.88;;;;;;;1.63;100.00;101345.94;5102760;28;20028;-60
2021/05/01 02:50:56;;;;;;;110.88;72.15;;;;;;;1.62;100.00;101337.22;5105152;28;20035;-61
2021/05/01 02:53:21;;;;;;;93.57;63.88;;;;;;;1.65;100.00;101337.38;5103194;28;20020;-61
2021/05/01 02:55:48;;;;;;;103.05;67.55;;;;;;;1.58;100.00;101330.06;5103895;28;20060;-61
2021/05/01 02:58:14;;;;;;;97.50;63.85;;;;;;;1.49;100.00;101330.53;5104423;28;20051;-61
2021/05/01 03:00:39;;;;;;;95.28;63.63;;;;;;;1.43;100.00;101331.91;5102446;28;20502;-61
2021/05/01 03:03:04;;;;;;;91.45;61.80;;;;;;;1.39;100.00;101323.97;5105689;28;20031;-61
2021/05/01 03:05:30;;;;;;;98.78;65.25;;;;;;;1.36;100.00;101325.53;5101945;28;20402;-61
2021/05/01 03:07:55;;;;;;;104.75;66.55;;;;;;;1.35;100.00;101327.22;5104426;28;20031;-61
2021/05/01 03:10:26;;;;;;;100.50;65.28;;;;;;;1.34;100.00;101320.25;5102037;28;20030;-61
2021/05/01 03:12:53;;;;;;;103.40;67.35;;;;;;;1.32;100.00;101327.06;5103920;28;20470;-61
2021/05/01 03:15:18;;;;;;;103.68;67.47;;;;;;;1.31;100.00;101324.41;5103451;28;20058;-61
2021/05/01 03:17:45;;;;;;;105.60;66.95;;;;;;;1.31;100.00;101322.72;5102928;28;20047;-61
2021/05/01 03:20:12;;;;;;;104.43;69.10;;;;;;;1.30;100.00;101325.25;5104224;28;20043;-62
2021/05/01 03:22:38;;;;;;;98.78;67.20;;;;;;;1.28;100.00;101324.25;5101876;28;20077;-61
2021/05/01 03:25:06;;;;;;;102.30;68.05;;;;;;;1.24;100.00;101323.22;5105471;28;20114;-62
2021/05/01 03:27:31;;;;;;;100.25;67.00;;;;;;;1.16;100.00;101320.22;5097640;28;20027;-62
2021/05/01 03:29:56;;;;;;;96.95;66.03;;;;;;;1.17;100.00;101326.34;5104250;28;20031;-62
2021/05/01 03:32:22;;;;;;;92.93;59.80;;;;;;;1.15;100.00;101322.75;5102867;28;20462;-60
2021/05/01 03:34:47;;;;;;;98.95;64.32;;;;;;;1.15;100.00;101318.44;5102964;28;20509;-60
2021/05/01 03:37:12;;;;;;;94.03;62.42;;;;;;;1.22;100.00;101319.63;5103821;28;20027;-60
2021/05/01 03:39:38;;;;;;;93.43;61.95;;;;;;;1.23;100.00;101317.94;5101580;28;20056;-60
2021/05/01 03:42:04;;;;;;;93.60;61.85;;;;;;;1.12;100.00;101323.50;5104214;28;20061;-60
2021/05/01 03:44:30;;;;;;;90.53;61.22;;;;;;;1.04;100.00;101319.59;5101314;28;20027;-59
2021/05/01 03:46:56;;;;;;;96.43;62.90;;;;;;;0.98;100.00;101329.72;5103997;28;20032;-60
2021/05/01 03:49:21;;;;;;;90.40;61.33;;;;;;;0.94;100.00;101327.78;5102621;28;20031;-60
2021/05/01 03:51:46;;;;;;;93.38;62.17;;;;;;;0.91;100.00;101319.81;5102542;28;20107;-59
2021/05/01 03:54:12;;;;;;;84.70;56.67;;;;;;;0.93;100.00;101321.66;5103930;28;20044;-60
2021/05/01 03:56:37;;;;;;;89.93;61.33;;;;;;;0.90;100.00;101323.22;5101422;28;20067;-60
2021/05/01 03:59:03;;;;;;;91.75;62.30;;;;;;;0.88;100.00;101317.06;5105178;28;20084;-60
2021/05/01 04:01:29;;;;;;;91.15;60.63;;;;;;;0.85;100.00;101323.00;5100279;28;20470;-60
2021/05/01 04:03:54;;;;;;;101.78;63.15;;;;;;;0.79;100.00;101315.75;5103507;28;20029;-60
2021/05/01 04:06:20;;;;;;;92.38;63.50;;;;;;;0.74;100.00;101324.13;5102799;28;20051;-60
2021/05/01 04:08:45;;;;;;;90.93;61.20;;;;;;;0.71;100.00;101318.78;5102149;28;20110;-60
2021/05/01 04:11:11;;;;;;;94.25;62.20;;;;;;;0.64;100.00;101323.66;5104194;28;20112;-60
2021/05/01 04:13:48;;;;;;;95.20;62.92;;;;;;;0.61;100.00;101318.31;5101138;28;20031;-60
2021/05/01 04:16:15;;;;;;;90.22;61.00;;;;;;;0.57;100.00;101325.84;5103565;28;20489;-59
2021/05/01 04:18:42;;;;;;;94.53;62.83;;;;;;;0.53;100.00;101322.19;5101244;28;20044;-59
2021/05/01 04:21:07;;;;;;;95.13;64.10;;;;;;;0.56;100.00;101324.97;5104269;28;20088;-59
2021/05/01 04:23:33;;;;;;;102.63;67.20;;;;;;;0.65;100.00;101319.34;5101045;28;20467;-59
2021/05/01 04:25:59;;;;;;;120.18;74.72;;;;;;;0.69;100.00;101322.19;5104049;28;20059;-59
2021/05/01 04:28:25;;;;;;;119.20;74.18;;;;;;;0.69;100.00;101324.78;5101885;28;20035;-59
2021/05/01 04:30:50;;;;;;;108.47;71.88;;;;;;;0.68;100.00;101323.03;5102888;28;20024;-59
2021/05/01 04:33:16;;;;;;;110.03;70.13;;;;;;;0.68;100.00;101322.09;5102984;28;20024;-59
2021/05/01 04:35:41;;;;;;;116.22;73.13;;;;;;;0.66;100.00;101327.22;5101610;28;20441;-59
2021/05/01 04:38:06;;;;;;;117.20;74.90;;;;;;;0.72;100.00;101325.78;5104078;28;20462;-59
2021/05/01 04:40:32;;;;;;;117.13;74.65;;;;;;;0.72;100.00;101326.66;5096374;28;20032;-60
2021/05/01 04:43:01;;;;;;;112.70;74.85;;;;;;;0.74;100.00;101334.53;5103744;28;20024;-59
2021/05/01 04:45:27;;;;;;;121.60;75.68;;;;;;;0.73;100.00;101331.06;5101508;28;20028;-60
2021/05/01 04:47:53;;;;;;;114.95;73.60;;;;;;;0.79;100.00;101336.56;5102971;28;20026;-60
2021/05/01 04:50:18;;;;;;;116.43;76.40;;;;;;;0.85;100.00;101330.78;5103019;28;20093;-61
2021/05/01 04:52:44;;;;;;;117.03;77.20;;;;;;;0.90;100.00;101336.22;5102297;28;20020;-59
2021/05/01 04:55:18;;;;;;;120.88;75.40;;;;;;;0.92;100.00;101335.50;5107358;28;20028;-60
2021/05/01 04:57:46;;;;;;;123.07;78.85;;;;;;;0.97;100.00;101339.22;5105663;28;20032;-61
2021/05/01 05:00:13;;;;;;;115.03;75.80;;;;;;;0.99;100.00;101337.59;5107586;27;20030;-61
2021/05/01 05:02:39;;;;;;;114.43;77.85;;;;;;;1.01;100.00;101342.88;5104419;28;20060;-60
2021/05/01 05:05:05;;;;;;;112.53;77.15;;;;;;;1.07;100.00;101334.50;5108013;28;20078;-59
2021/05/01 05:07:31;;;;;;;114.55;78.28;;;;;;;1.11;100.00;101341.66;5104407;28;20020;-61
2021/05/01 05:09:56;;;;;;;122.03;79.50;;;;;;;1.18;100.00;101341.13;5106960;28;20027;-61
2021/05/01 05:12:21;;;;;;;117.63;76.35;;;;;;;1.29;100.00;101339.06;5105615;28;20023;-61
2021/05/01 05:14:47;;;;;;;116.90;79.10;;;;;;;1.27;100.00;101344.22;5105390;28;20065;-61
2021/05/01 05:17:12;;;;;;;121.55;79.30;;;;;;;1.29;100.00;101345.16;5106893;28;20034;-61
2021/05/01 05:19:38;;;;;;;114.40;78.85;;;;;;;1.33;100.00;101349.72;5103843;28;20510;-61
2021/05/01 05:22:03;;;;;;;119.18;80.63;;;;;;;1.39;100.00;101355.22;5107644;28;20135;-61
2021/05/01 05:24:28;;;;;;;113.25;78.20;;;;;;;1.46;100.00;101361.66;5104108;28;20012;-61
2021/05/01 05:26:54;;;;;;;117.40;81.15;;;;;;;1.52;100.00;101361.06;5106116;28;20093;-62
2021/05/01 05:29:19;;;;;;;117.53;81.90;;;;;;;1.57;100.00;101367.38;5105515;28;20058;-61
2021/05/01 05:31:44;;;;;;;122.15;82.15;;;;;;;1.66;100.00;101367.84;5104964;28;20386;-63
2021/05/01 05:34:10;;;;;;;116.65;81.57;;;;;;;1.76;100.00;101371.78;5106842;28;20091;-63
2021/05/01 05:36:35;;;;;;;113.47;79.07;;;;;;;1.81;100.00;101364.19;5103405;28;20035;-64
2021/05/01 05:39:01;;;;;;;114.45;81.95;;;;;;;1.79;100.00;101376.25;5106771;28;20019;-63
2021/05/01 05:41:28;;;;;;;109.40;78.60;;;;;;;1.80;100.00;101375.44;5104376;28;20019;-63
2021/05/01 05:43:53;;;;;;;114.00;79.05;;;;;;;1.85;100.00;101371.31;5105802;28;20020;-63
2021/05/01 05:46:19;;;;;;;115.95;81.53;;;;;;;1.92;100.00;101368.19;5105515;28;20023;-63
2021/05/01 05:48:44;;;;;;;123.60;87.55;;;;;;;2.00;100.00;101376.41;5104273;28;20024;-63
2021/05/01 05:51:09;;;;;;;121.88;85.93;;;;;;;2.11;100.00;101372.56;5106407;28;20027;-63
2021/05/01 05:53:35;;;;;;;121.50;84.05;;;;;;;2.21;100.00;101377.41;5102142;28;20532;-64
2021/05/01 05:56:01;;;;;;;111.68;80.80;;;;;;;2.29;100.00;101375.16;5106178;28;20028;-64
2021/05/01 05:58:26;;;;;;;110.47;79.53;;;;;;;2.38;100.00;101378.19;5103894;28;20141;-63
2021/05/01 06:00:51;;;;;;;101.13;72.78;;;;;;;2.47;100.00;101375.09;5105248;28;20027;-63
2021/05/01 06:03:18;;;;;;;102.40;75.07;;;;;;;2.57;100.00;101376.44;5104719;28;20065;-63
2021/05/01 06:05:48;;;;;;;106.53;75.72;;;;;;;2.65;100.00;101382.91;5104054;28;20363;-64
2021/05/01 06:08:16;;;;;;;99.90;70.13;;;;;;;2.74;100.00;101375.47;5105385;28;20054;-63
2021/05/01 06:10:43;;;;;;;101.18;72.55;;;;;;;2.86;100.00;101380.34;5098455;28;20030;-63
2021/05/01 06:13:10;;;;;;;94.13;67.88;;;;;;;2.96;100.00;101374.69;5105724;28;20028;-64
2021/05/01 06:15:36;;;;;;;91.45;61.10;;;;;;;3.07;100.00;101374.25;5096544;28;20040;-64
2021/05/01 06:18:02;;;;;;;88.53;62.35;;;;;;;3.20;100.00;101365.22;5104893;28;20368;-64
2021/05/01 06:20:29;;;;;;;81.78;59.78;;;;;;;3.32;100.00;101368.38;5104478;27;20395;-64
2021/05/01 06:22:54;;;;;;;78.18;56.20;;;;;;;3.42;100.00;101373.16;5096249;28;20027;-63
2021/05/01 06:25:21;;;;;;;74.18;55.00;;;;;;;3.57;100.00;101378.13;5095053;28;20027;-63
2021/05/01 06:27:50;;;;;;;71.47;53.75;;;;;;;3.67;100.00;101366.34;5092904;28;20027;-63
2021/05/01 06:30:16;;;;;;;70.20;52.55;;;;;;;3.77;100.00;101368.50;5096615;28;20081;-63
2021/05/01 06:32:42;;;;;;;69.60;51.22;;;;;;;3.90;100.00;101368.97;5094196;28;20031;-64
2021/05/01 06:35:07;;;;;;;69.50;51.15;;;;;;;4.05;100.00;101366.97;5094032;28;20020;-64
2021/05/01 06:37:37;;;;;;;61.65;46.80;;;;;;;4.11;100.00;101364.59;5100050;28;20107;-63
2021/05/01 06:40:13;;;;;;;63.90;47.58;;;;;;;4.25;100.00;101370.38;5099085;28;20057;-64
2021/05/01 06:43:03;;;;;;;58.92;44.97;;;;;;;4.38;100.00;101379.56;5101665;28;20035;-64
2021/05/01 06:45:30;;;;;;;57.53;43.15;;;;;;;4.49;100.00;101378.25;5098555;28;20080;-63
2021/05/01 06:48:05;;;;;;;56.50;43.15;;;;;;;4.61;100.00;101371.69;5098024;28;20428;-63
2021/05/01 06:50:32;;;;;;;56.78;42.35;;;;;;;4.74;100.00;101368.69;5099211;28;20065;-63
2021/05/01 06:52:59;;;;;;;63.47;43.15;;;;;;;4.92;100.00;101364.94;5096221;28;20031;-63
2021/05/01 06:55:28;;;;;;;52.03;40.45;;;;;;;4.96;100.00;101361.59;5099453;28;20028;-65
2021/05/01 06:57:56;;;;;;;51.33;38.08;;;;;;;5.04;100.00;101365.41;5098705;28;20577;-63
2021/05/01 07:00:24;;;;;;;49.85;37.33;;;;;;;5.12;99.94;101363.91;5099010;28;20052;-64
2021/05/01 07:02:53;;;;;;;50.60;37.47;;;;;;;5.22;100.00;101365.13;5095787;28;20031;-60
2021/05/01 07:05:23;;;;;;;46.85;35.92;;;;;;;5.30;99.31;101357.53;5098916;28;20034;-62
2021/05/01 07:07:49;;;;;;;46.20;34.13;;;;;;;5.38;96.52;101361.31;5097383;28;20705;-62
2021/05/01 07:10:17;;;;;;;44.00;31.58;;;;;;;5.50;95.17;101356.47;5098145;28;20162;-62
2021/05/01 07:12:43;;;;;;;41.97;29.02;;;;;;;5.65;92.04;101360.44;5098072;28;20023;-61
2021/05/01 07:15:11;;;;;;;40.45;26.15;;;;;;;5.79;89.70;101360.88;5098559;28;20031;-60
2021/05/01 07:17:38;;;;;;;40.53;28.15;;;;;;;5.98;91.86;101354.53;5097325;28;20020;-61
2021/05/01 07:20:06;;;;;;;40.60;27.13;;;;;;;6.11;86.53;101351.44;5100868;28;20044;-61
2021/05/01 07:22:31;;;;;;;33.95;20.92;;;;;;;6.23;83.07;101356.16;5096694;28;20028;-61
2021/05/01 07:24:58;;;;;;;35.30;23.23;;;;;;;6.42;84.80;101363.75;5103484;28;20034;-61
2021/05/01 07:27:31;;;;;;;32.58;19.65;;;;;;;6.57;80.41;101368.56;5102417;28;20103;-61
2021/05/01 07:30:00;;;;;;;30.95;17.02;;;;;;;6.73;76.64;101371.66;5103921;28;20023;-61
2021/05/01 07:32:30;;;;;;;30.63;18.38;;;;;;;6.83;77.42;101371.06;5101908;27;20070;-61
2021/05/01 07:34:57;;;;;;;29.35;17.35;;;;;;;6.82;76.76;101364.00;5103509;28;20420;-62
2021/05/01 07:37:23;;;;;;;29.92;17.60;;;;;;;7.02;78.28;101361.94;5102342;28;20024;-62
2021/05/01 07:39:51;;;;;;;32.85;18.70;;;;;;;7.30;75.22;101375.81;5103114;28;20024;-62
2021/05/01 07:42:18;;;;;;;31.10;17.98;;;;;;;7.34;74.20;101372.41;5103202;28;20031;-63
2021/05/01 07:44:45;;;;;;;30.42;17.58;;;;;;;7.74;72.88;101375.16;5102272;28;20150;-62
2021/05/01 07:47:10;;;;;;;31.02;18.90;;;;;;;7.91;72.83;101371.19;5104209;28;20028;-62
2021/05/01 07:49:38;;;;;;;31.60;19.02;;;;;;;7.93;70.39;101377.38;5101138;28;20115;-63
2021/05/01 07:52:04;;;;;;;30.42;18.85;;;;;;;7.98;69.04;101383.66;5097558;28;20403;-63
2021/05/01 07:54:33;;;;;;;31.92;19.92;;;;;;;8.14;70.96;101386.63;5104770;28;20023;-63
2021/05/01 07:56:59;;;;;;;37.30;26.10;;;;;;;8.22;67.17;101378.91;5101768;28;20089;-63
2021/05/01 07:59:24;;;;;;;31.25;20.20;;;;;;;8.14;66.83;101391.88;5103511;28;20092;-63
2021/05/01 08:01:49;;;;;;;32.03;19.92;;;;;;;8.33;67.26;101383.56;5103208;28;20466;-63
2021/05/01 08:04:15;;;;;;;34.03;22.27;;;;;;;8.57;65.19;101374.44;5101998;28;20470;-63
2021/05/01 08:06:40;;;;;;;32.35;22.95;;;;;;;8.68;66.14;101367.66;5104033;28;20537;-63
2021/05/01 08:09:06;;;;;;;33.95;22.85;;;;;;;8.64;63.47;101378.09;5101361;28;20032;-63
2021/05/01 08:11:31;;;;;;;34.88;22.25;;;;;;;8.77;64.55;101379.25;5104263;28;20059;-66
2021/05/01 08:13:57;;;;;;;34.42;22.55;;;;;;;8.88;62.17;101364.50;5101567;28;20032;-63
2021/05/01 08:16:22;;;;;;;33.22;20.45;;;;;;;9.33;62.51;101368.84;5095318;28;20028;-64
2021/05/01 08:18:51;;;;;;;29.23;18.95;;;;;;;9.09;61.25;101366.69;5097101;28;20071;-64
2021/05/01 08:21:16;;;;;;;29.80;18.42;;;;;;;9.68;61.27;101351.84;5096884;28;20028;-64
2021/05/01 08:23:42;;;;;;;28.75;17.85;;;;;;;10.37;57.30;101350.25;5099683;28;20497;-63
2021/05/01 08:26:08;;;;;;;28.92;17.13;;;;;;;11.49;54.95;101353.25;5098514;28;20024;-64
2021/05/01 08:28:34;;;;;;;26.05;15.52;;;;;;;12.73;50.85;101346.06;5102921;28;20036;-64
2021/05/01 08:30:59;;;;;;;28.42;15.32;;;;;;;12.66;49.85;101346.94;5097162;28;20567;-64
2021/05/01 08:33:25;;;;;;;28.88;14.93;;;;;;;11.70;50.96;101346.34;5102157;28;20047;-62
2021/05/01 08:35:51;;;;;;;28.13;14.45;;;;;;;11.04;51.23;101351.94;5107150;28;20084;-63
2021/05/01 08:38:18;;;;;;;26.83;14.50;;;;;;;11.22;52.57;101342.41;5103611;28;20023;-63
2021/05/01 08:40:44;;;;;;;26.20;13.70;;;;;;;11.70;50.02;101346.34;5105534;28;20034;-64
2021/05/01 08:43:09;;;;;;;26.30;14.38;;;;;;;11.83;50.00;101339.38;5104244;28;20401;-64
2021/05/01 08:45:35;;;;;;;25.65;13.93;;;;;;;13.11;47.90;101334.66;5108758;28;20031;-61
2021/05/01 08:48:01;;;;;;;24.55;13.70;;;;;;;13.83;43.77;101331.16;5099847;28;20016;-62
2021/05/01 08:50:26;;;;;;;25.33;13.48;;;;;;;13.50;44.62;101329.41;5105409;28;20039;-64
2021/05/01 08:52:55;;;;;;;26.80;13.38;;;;;;;13.17;45.16;101332.00;5100009;28;20031;-62
2021/05/01 08:55:22;;;;;;;24.75;12.27;;;;;;;12.76;44.23;101330.16;5100758;28;20040;-63
2021/05/01 08:57:48;;;;;;;24.20;12.45;;;;;;;13.62;41.50;101336.50;5100676;28;20016;-63
2021/05/01 09:00:14;;;;;;;26.65;12.90;;;;;;;14.81;42.16;101324.66;5099891;28;20030;-64
2021/05/01 09:02:40;;;;;;;24.27;13.20;;;;;;;14.61;41.57;101335.41;5101070;28;20122;-60
2021/05/01 09:05:07;;;;;;;25.02;12.32;;;;;;;13.07;42.77;101332.88;5101674;28;20500;-61
2021/05/01 09:07:36;;;;;;;23.92;12.18;;;;;;;11.65;44.61;101337.50;5099175;28;20026;-59
2021/05/01 09:10:05;;;;;;;24.63;11.65;;;;;;;10.77;46.49;101326.94;5100813;28;20032;-63
2021/05/01 09:12:45;;;;;;;24.45;12.30;;;;;;;10.75;49.05;101327.81;5104956;28;20062;-62
2021/05/01 09:15:23;;;;;;;24.92;12.13;;;;;;;11.66;46.49;101334.84;5096960;28;20028;-62
2021/05/01 09:17:58;;;;;;;24.13;12.75;;;;;;;13.33;44.92;101335.56;5106163;28;20027;-63
2021/05/01 09:20:24;;;;;;;24.02;11.93;;;;;;;13.99;41.57;101332.00;5096992;28;20062;-62
2021/05/01 09:23:08;;;;;;;24.40;12.32;;;;;;;14.28;40.93;101337.28;5106303;28;20015;-62
2021/05/01 09:25:55;;;;;;;23.65;11.68;;;;;;;14.29;41.93;101325.72;5103413;28;20077;-62
2021/05/01 09:28:22;;;;;;;24.45;11.75;;;;;;;13.13;43.40;101332.88;5100599;28;20065;-62
2021/05/01 09:30:59;;;;;;;22.92;10.35;;;;;;;12.81;42.47;101338.13;5104365;28;20031;-63
2021/05/01 09:33:30;;;;;;;23.27;9.93;;;;;;;12.38;40.50;101341.50;5099024;28;20020;-63
2021/05/01 09:36:05;;;;;;;23.45;10.43;;;;;;;12.21;43.00;101344.94;5099216;28;20131;-63
2021/05/01 09:38:35;;;;;;;23.30;10.77;;;;;;;11.81;43.42;101344.66;5094998;28;20024;-65
2021/05/01 09:41:34;;;;;;;23.95;11.13;;;;;;;11.21;45.44;101341.50;5097779;28;20042;-64
2021/05/01 09:44:03;;;;;;;23.23;10.82;;;;;;;10.93;47.16;101335.06;5035310;28;20092;-65
2021/05/01 09:46:33;;;;;;;22.50;10.18;;;;;;;11.56;44.49;101350.66;5034609;28;20025;-62
2021/05/01 09:49:13;;;;;;;22.77;10.70;;;;;;;11.69;44.10;101345.47;5034644;28;20128;-65
2021/05/01 09:52:09;;;;;;;21.48;9.27;;;;;;;11.87;42.67;101349.13;5031527;28;20523;-64
2021/05/01 09:54:37;;;;;;;22.63;10.10;;;;;;;11.60;41.90;101355.97;5032368;28;20040;-65
2021/05/01 09:57:05;;;;;;;22.27;10.45;;;;;;;12.19;41.53;101354.66;5035325;28;20384;-62
2021/05/01 09:59:45;;;;;;;21.67;9.80;;;;;;;12.25;41.07;101353.81;5034047;28;20029;-62
2021/05/01 10:02:12;;;;;;;21.88;10.20;;;;;;;12.25;41.15;101343.22;5033133;28;20041;-61
2021/05/01 10:04:39;;;;;;;21.77;9.93;;;;;;;12.18;42.29;101347.56;5041646;28;20521;-62
2021/05/01 10:07:12;;;;;;;22.23;10.10;;;;;;;11.64;44.24;101346.31;5043295;28;20036;-62
2021/05/01 10:09:39;;;;;;;22.95;11.27;;;;;;;11.63;43.58;101345.41;5041480;28;20042;-61
2021/05/01 10:12:09;;;;;;;24.05;11.43;;;;;;;11.52;44.93;101347.97;5043237;28;20025;-62
2021/05/01 10:14:52;;;;;;;23.90;12.38;;;;;;;11.63;45.50;101353.34;5041255;28;20080;-62
2021/05/01 10:17:26;;;;;;;23.25;10.85;;;;;;;11.64;42.52;101359.53;5041292;28;20033;-62
2021/05/01 10:20:00;;;;;;;23.02;9.68;;;;;;;12.03;42.17;101347.50;5059195;28;20123;-62
2021/05/01 10:22:28;;;;;;;23.13;9.38;;;;;;;14.04;38.93;101347.97;5098645;28;20035;-62
2021/05/01 10:24:56;;;;;;;23.05;10.25;;;;;;;16.32;36.70;101342.94;5105960;28;20016;-62
2021/05/01 10:27:22;;;;;;;21.77;9.95;;;;;;;18.35;32.22;101338.91;5103015;28;20104;-63
2021/05/01 10:30:46;;;;;;;24.55;10.23;;;;;;;19.55;29.16;101356.78;5105001;28;20020;-63
2021/05/01 10:33:17;;;;;;;21.27;9.20;;;;;;;18.29;30.05;101347.09;5098776;28;20032;-66
2021/05/01 10:36:23;;;;;;;22.27;9.23;;;;;;;17.00;32.51;101347.44;5104481;28;20038;-66
2021/05/01 10:38:58;;;;;;;21.75;9.80;;;;;;;16.15;34.07;101335.13;5104162;28;20119;-66
2021/05/01 10:41:24;;;;;;;22.58;10.02;;;;;;;16.42;32.02;101339.25;5102813;28;20111;-65
2021/05/01 10:43:54;;;;;;;20.92;9.52;;;;;;;16.19;32.57;101347.53;5104863;28;20020;-66
2021/05/01 10:46:39;;;;;;;21.98;9.68;;;;;;;15.21;34.97;101343.94;5103257;28;20027;-65
2021/05/01 10:49:07;;;;;;;22.70;9.50;;;;;;;14.44;35.25;101340.75;5100018;28;20094;-65
2021/05/01 10:51:51;;;;;;;20.25;9.02;;;;;;;13.48;35.61;101334.72;5105492;28;20490;-66
2021/05/01 10:54:21;;;;;;;21.85;10.23;;;;;;;13.70;38.07;101330.31;5104618;28;20035;-65
2021/05/01 10:56:50;;;;;;;21.65;9.23;;;;;;;14.01;35.71;101326.69;5103209;28;20040;-68
2021/05/01 10:59:17;;;;;;;22.60;9.40;;;;;;;13.41;35.89;101336.50;5103953;28;20103;-65
2021/05/01 11:01:48;;;;;;;22.48;10.10;;;;;;;13.04;38.15;101324.91;5103487;28;20020;-64
2021/05/01 11:04:19;;;;;;;22.88;10.20;;;;;;;13.47;38.46;101327.66;5100970;28;20453;-65
2021/05/01 11:06:50;;;;;;;23.05;9.88;;;;;;;13.93;36.92;101318.75;5103531;28;20363;-65
2021/05/01 11:09:43;;;;;;;23.10;10.25;;;;;;;14.30;36.12;101321.31;5102015;28;20039;-64
2021/05/01 11:12:09;;;;;;;;;;;;;;;14.80;35.86;101316.69;5098329;28;20028;-66